sensor_id;sensor_type;location;lat;lon;timestamp;P1;durP1;ratioP1;P2;durP2;ratioP2
19951;SDS011;10137;49.406;19.484;2023-09-19T00:00:38;8.35;;;6.70;;
19951;SDS011;10137;49.406;19.484;2023-09-19T00:03:08;7.20;;;6.18;;
19951;SDS011;10137;49.406;19.484;2023-09-19T00:05:36;9.95;;;6.82;;
19951;SDS011;10137;49.406;19.484;2023-09-19T00:08:10;10.85;;;6.10;;
19951;SDS011;10137;49.406;19.484;2023-09-19T00:10:39;7.20;;;6.40;;
19951;SDS011;10137;49.406;19.484;2023-09-19T00:13:09;7.03;;;6.22;;
19951;SDS011;10137;49.406;19.484;2023-09-19T00:15:40;9.10;;;6.75;;
19951;SDS011;10137;49.406;19.484;2023-09-19T00:18:11;8.38;;;7.05;;
19951;SDS011;10137;49.406;19.484;2023-09-19T00:20:41;9.63;;;6.82;;
19951;SDS011;10137;49.406;19.484;2023-09-19T00:23:13;10.63;;;6.72;;
19951;SDS011;10137;49.406;19.484;2023-09-19T00:25:41;10.57;;;6.80;;
19951;SDS011;10137;49.406;19.484;2023-09-19T00:28:11;13.18;;;6.60;;
19951;SDS011;10137;49.406;19.484;2023-09-19T00:30:42;10.10;;;7.03;;
19951;SDS011;10137;49.406;19.484;2023-09-19T00:33:11;9.10;;;6.97;;
19951;SDS011;10137;49.406;19.484;2023-09-19T00:35:46;11.63;;;6.95;;
19951;SDS011;10137;49.406;19.484;2023-09-19T00:38:15;11.68;;;6.85;;
19951;SDS011;10137;49.406;19.484;2023-09-19T00:40:46;11.40;;;6.82;;
19951;SDS011;10137;49.406;19.484;2023-09-19T00:43:14;12.30;;;7.43;;
19951;SDS011;10137;49.406;19.484;2023-09-19T00:45:43;10.80;;;7.07;;
19951;SDS011;10137;49.406;19.484;2023-09-19T00:48:13;8.77;;;7.00;;
19951;SDS011;10137;49.406;19.484;2023-09-19T00:50:43;9.52;;;7.57;;
19951;SDS011;10137;49.406;19.484;2023-09-19T00:53:14;7.55;;;6.70;;
19951;SDS011;10137;49.406;19.484;2023-09-19T00:55:49;9.98;;;6.70;;
19951;SDS011;10137;49.406;19.484;2023-09-19T00:58:19;9.40;;;6.85;;
19951;SDS011;10137;49.406;19.484;2023-09-19T01:00:48;11.35;;;7.18;;
19951;SDS011;10137;49.406;19.484;2023-09-19T01:03:17;8.70;;;6.65;;
19951;SDS011;10137;49.406;19.484;2023-09-19T01:05:44;9.05;;;6.65;;
19951;SDS011;10137;49.406;19.484;2023-09-19T01:08:12;8.90;;;6.38;;
19951;SDS011;10137;49.406;19.484;2023-09-19T01:10:44;7.03;;;6.22;;
19951;SDS011;10137;49.406;19.484;2023-09-19T01:13:21;7.20;;;6.18;;
19951;SDS011;10137;49.406;19.484;2023-09-19T01:15:57;8.32;;;6.10;;
19951;SDS011;10137;49.406;19.484;2023-09-19T01:18:35;8.85;;;6.38;;
19951;SDS011;10137;49.406;19.484;2023-09-19T01:21:08;8.43;;;6.70;;
19951;SDS011;10137;49.406;19.484;2023-09-19T01:23:49;8.95;;;6.43;;
19951;SDS011;10137;49.406;19.484;2023-09-19T01:26:40;10.60;;;6.57;;
19951;SDS011;10137;49.406;19.484;2023-09-19T01:29:26;7.35;;;6.28;;
19951;SDS011;10137;49.406;19.484;2023-09-19T01:32:08;11.57;;;6.22;;
19951;SDS011;10137;49.406;19.484;2023-09-19T01:34:46;8.80;;;6.97;;
19951;SDS011;10137;49.406;19.484;2023-09-19T01:37:14;10.07;;;6.78;;
19951;SDS011;10137;49.406;19.484;2023-09-19T01:39:46;9.98;;;7.03;;
19951;SDS011;10137;49.406;19.484;2023-09-19T01:42:19;8.73;;;6.50;;
19951;SDS011;10137;49.406;19.484;2023-09-19T01:44:59;11.07;;;7.18;;
19951;SDS011;10137;49.406;19.484;2023-09-19T01:47:37;9.88;;;7.10;;
19951;SDS011;10137;49.406;19.484;2023-09-19T01:50:12;7.95;;;6.70;;
19951;SDS011;10137;49.406;19.484;2023-09-19T01:52:47;8.10;;;6.65;;
19951;SDS011;10137;49.406;19.484;2023-09-19T01:55:20;8.80;;;7.30;;
19951;SDS011;10137;49.406;19.484;2023-09-19T01:57:51;7.93;;;7.07;;
19951;SDS011;10137;49.406;19.484;2023-09-19T02:00:32;8.10;;;7.07;;
19951;SDS011;10137;49.406;19.484;2023-09-19T02:03:08;8.02;;;6.53;;
19951;SDS011;10137;49.406;19.484;2023-09-19T02:05:37;8.60;;;6.65;;
19951;SDS011;10137;49.406;19.484;2023-09-19T02:08:06;13.25;;;7.13;;
19951;SDS011;10137;49.406;19.484;2023-09-19T02:10:35;8.93;;;7.28;;
19951;SDS011;10137;49.406;19.484;2023-09-19T02:13:04;14.82;;;7.55;;
19951;SDS011;10137;49.406;19.484;2023-09-19T02:15:32;11.18;;;7.10;;
19951;SDS011;10137;49.406;19.484;2023-09-19T02:18:00;11.52;;;7.63;;
19951;SDS011;10137;49.406;19.484;2023-09-19T02:20:31;11.25;;;7.50;;
19951;SDS011;10137;49.406;19.484;2023-09-19T02:23:02;12.85;;;8.23;;
19951;SDS011;10137;49.406;19.484;2023-09-19T02:25:33;9.35;;;7.40;;
19951;SDS011;10137;49.406;19.484;2023-09-19T02:28:01;11.05;;;7.65;;
19951;SDS011;10137;49.406;19.484;2023-09-19T02:30:30;12.10;;;7.75;;
19951;SDS011;10137;49.406;19.484;2023-09-19T02:32:58;11.77;;;8.13;;
19951;SDS011;10137;49.406;19.484;2023-09-19T02:35:29;11.00;;;7.90;;
19951;SDS011;10137;49.406;19.484;2023-09-19T02:38:02;10.38;;;8.45;;
19951;SDS011;10137;49.406;19.484;2023-09-19T02:40:32;11.23;;;7.90;;
19951;SDS011;10137;49.406;19.484;2023-09-19T02:43:02;13.48;;;8.40;;
19951;SDS011;10137;49.406;19.484;2023-09-19T02:45:31;11.77;;;8.70;;
19951;SDS011;10137;49.406;19.484;2023-09-19T02:48:00;9.88;;;8.32;;
19951;SDS011;10137;49.406;19.484;2023-09-19T02:50:29;12.35;;;8.93;;
19951;SDS011;10137;49.406;19.484;2023-09-19T02:52:57;10.90;;;8.27;;
19951;SDS011;10137;49.406;19.484;2023-09-19T02:55:27;13.10;;;7.93;;
19951;SDS011;10137;49.406;19.484;2023-09-19T02:57:55;10.65;;;7.57;;
19951;SDS011;10137;49.406;19.484;2023-09-19T03:00:24;10.73;;;8.30;;
19951;SDS011;10137;49.406;19.484;2023-09-19T03:02:54;10.13;;;8.10;;
19951;SDS011;10137;49.406;19.484;2023-09-19T03:05:23;10.98;;;7.82;;
19951;SDS011;10137;49.406;19.484;2023-09-19T03:07:52;9.65;;;7.90;;
19951;SDS011;10137;49.406;19.484;2023-09-19T03:10:22;13.57;;;8.20;;
19951;SDS011;10137;49.406;19.484;2023-09-19T03:12:52;10.23;;;7.90;;
19951;SDS011;10137;49.406;19.484;2023-09-19T03:15:21;11.50;;;8.20;;
19951;SDS011;10137;49.406;19.484;2023-09-19T03:17:49;11.02;;;8.50;;
19951;SDS011;10137;49.406;19.484;2023-09-19T03:20:18;11.93;;;8.13;;
19951;SDS011;10137;49.406;19.484;2023-09-19T03:22:50;10.52;;;7.65;;
19951;SDS011;10137;49.406;19.484;2023-09-19T03:25:18;12.52;;;8.55;;
19951;SDS011;10137;49.406;19.484;2023-09-19T03:27:49;12.82;;;8.45;;
19951;SDS011;10137;49.406;19.484;2023-09-19T03:30:19;10.27;;;8.35;;
19951;SDS011;10137;49.406;19.484;2023-09-19T03:32:47;13.10;;;8.18;;
19951;SDS011;10137;49.406;19.484;2023-09-19T03:35:16;13.23;;;8.38;;
19951;SDS011;10137;49.406;19.484;2023-09-19T03:37:45;11.93;;;8.55;;
19951;SDS011;10137;49.406;19.484;2023-09-19T03:40:13;12.63;;;8.50;;
19951;SDS011;10137;49.406;19.484;2023-09-19T03:42:43;11.23;;;8.13;;
19951;SDS011;10137;49.406;19.484;2023-09-19T03:45:11;11.35;;;8.13;;
19951;SDS011;10137;49.406;19.484;2023-09-19T03:47:43;11.35;;;8.05;;
19951;SDS011;10137;49.406;19.484;2023-09-19T03:50:13;9.18;;;8.00;;
19951;SDS011;10137;49.406;19.484;2023-09-19T03:52:44;11.85;;;8.73;;
19951;SDS011;10137;49.406;19.484;2023-09-19T03:55:14;12.90;;;9.32;;
19951;SDS011;10137;49.406;19.484;2023-09-19T03:57:41;13.68;;;8.25;;
19951;SDS011;10137;49.406;19.484;2023-09-19T04:00:10;10.45;;;8.43;;
19951;SDS011;10137;49.406;19.484;2023-09-19T04:02:40;15.15;;;8.65;;
19951;SDS011;10137;49.406;19.484;2023-09-19T04:05:10;12.15;;;8.82;;
19951;SDS011;10137;49.406;19.484;2023-09-19T04:07:38;15.68;;;10.35;;
19951;SDS011;10137;49.406;19.484;2023-09-19T04:10:07;14.93;;;11.15;;
19951;SDS011;10137;49.406;19.484;2023-09-19T04:12:37;15.98;;;10.95;;
19951;SDS011;10137;49.406;19.484;2023-09-19T04:15:07;17.92;;;11.05;;
19951;SDS011;10137;49.406;19.484;2023-09-19T04:17:39;18.00;;;10.15;;
19951;SDS011;10137;49.406;19.484;2023-09-19T04:20:08;19.33;;;10.20;;
19951;SDS011;10137;49.406;19.484;2023-09-19T04:22:38;15.65;;;9.65;;
19951;SDS011;10137;49.406;19.484;2023-09-19T04:25:07;17.08;;;10.65;;
19951;SDS011;10137;49.406;19.484;2023-09-19T04:27:35;15.38;;;10.05;;
19951;SDS011;10137;49.406;19.484;2023-09-19T04:30:05;14.27;;;9.80;;
19951;SDS011;10137;49.406;19.484;2023-09-19T04:32:38;14.05;;;9.85;;
19951;SDS011;10137;49.406;19.484;2023-09-19T04:35:07;13.85;;;9.93;;
19951;SDS011;10137;49.406;19.484;2023-09-19T04:37:38;11.40;;;9.48;;
19951;SDS011;10137;49.406;19.484;2023-09-19T04:40:07;13.77;;;10.00;;
19951;SDS011;10137;49.406;19.484;2023-09-19T04:42:40;13.10;;;10.10;;
19951;SDS011;10137;49.406;19.484;2023-09-19T04:45:08;18.73;;;11.95;;
19951;SDS011;10137;49.406;19.484;2023-09-19T04:47:39;15.13;;;10.57;;
19951;SDS011;10137;49.406;19.484;2023-09-19T04:50:11;16.53;;;10.87;;
19951;SDS011;10137;49.406;19.484;2023-09-19T04:52:43;15.32;;;11.27;;
19951;SDS011;10137;49.406;19.484;2023-09-19T04:55:18;15.82;;;11.02;;
19951;SDS011;10137;49.406;19.484;2023-09-19T04:57:49;14.15;;;11.00;;
19951;SDS011;10137;49.406;19.484;2023-09-19T05:00:19;18.27;;;12.57;;
19951;SDS011;10137;49.406;19.484;2023-09-19T05:02:50;19.83;;;12.23;;
19951;SDS011;10137;49.406;19.484;2023-09-19T05:05:20;17.70;;;12.00;;
19951;SDS011;10137;49.406;19.484;2023-09-19T05:07:50;20.73;;;12.48;;
19951;SDS011;10137;49.406;19.484;2023-09-19T05:10:23;24.40;;;12.90;;
19951;SDS011;10137;49.406;19.484;2023-09-19T05:12:52;18.13;;;12.77;;
19951;SDS011;10137;49.406;19.484;2023-09-19T05:15:21;21.33;;;12.03;;
19951;SDS011;10137;49.406;19.484;2023-09-19T05:17:50;20.30;;;13.23;;
19951;SDS011;10137;49.406;19.484;2023-09-19T05:20:25;19.33;;;12.30;;
19951;SDS011;10137;49.406;19.484;2023-09-19T05:23:01;17.23;;;11.50;;
19951;SDS011;10137;49.406;19.484;2023-09-19T05:25:35;16.37;;;10.53;;
19951;SDS011;10137;49.406;19.484;2023-09-19T05:28:08;14.73;;;9.40;;
19951;SDS011;10137;49.406;19.484;2023-09-19T05:30:41;10.80;;;8.85;;
19951;SDS011;10137;49.406;19.484;2023-09-19T05:33:11;10.97;;;9.10;;
19951;SDS011;10137;49.406;19.484;2023-09-19T05:35:41;12.30;;;8.40;;
19951;SDS011;10137;49.406;19.484;2023-09-19T05:38:08;11.60;;;8.93;;
19951;SDS011;10137;49.406;19.484;2023-09-19T05:40:39;12.63;;;8.30;;
19951;SDS011;10137;49.406;19.484;2023-09-19T05:43:07;10.53;;;7.90;;
19951;SDS011;10137;49.406;19.484;2023-09-19T05:45:40;11.27;;;7.78;;
19951;SDS011;10137;49.406;19.484;2023-09-19T05:48:08;10.70;;;7.57;;
19951;SDS011;10137;49.406;19.484;2023-09-19T05:50:40;9.30;;;7.07;;
19951;SDS011;10137;49.406;19.484;2023-09-19T05:53:13;8.45;;;6.75;;
19951;SDS011;10137;49.406;19.484;2023-09-19T05:55:44;8.70;;;7.00;;
19951;SDS011;10137;49.406;19.484;2023-09-19T05:58:12;8.23;;;7.20;;
19951;SDS011;10137;49.406;19.484;2023-09-19T06:00:41;10.02;;;6.78;;
19951;SDS011;10137;49.406;19.484;2023-09-19T06:03:10;11.23;;;7.30;;
19951;SDS011;10137;49.406;19.484;2023-09-19T06:05:41;7.93;;;6.13;;
19951;SDS011;10137;49.406;19.484;2023-09-19T06:08:10;9.07;;;6.53;;
19951;SDS011;10137;49.406;19.484;2023-09-19T06:10:38;9.13;;;6.78;;
19951;SDS011;10137;49.406;19.484;2023-09-19T06:13:08;8.07;;;6.13;;
19951;SDS011;10137;49.406;19.484;2023-09-19T06:15:39;6.47;;;5.60;;
19951;SDS011;10137;49.406;19.484;2023-09-19T06:18:10;8.10;;;6.20;;
19951;SDS011;10137;49.406;19.484;2023-09-19T06:20:43;6.38;;;5.47;;
19951;SDS011;10137;49.406;19.484;2023-09-19T06:23:11;7.78;;;5.70;;
19951;SDS011;10137;49.406;19.484;2023-09-19T06:25:39;8.10;;;6.20;;
19951;SDS011;10137;49.406;19.484;2023-09-19T06:28:09;9.18;;;7.28;;
19951;SDS011;10137;49.406;19.484;2023-09-19T06:30:39;9.38;;;7.07;;
19951;SDS011;10137;49.406;19.484;2023-09-19T06:33:08;11.68;;;7.35;;
19951;SDS011;10137;49.406;19.484;2023-09-19T06:35:38;13.52;;;8.95;;
19951;SDS011;10137;49.406;19.484;2023-09-19T06:38:16;11.45;;;8.65;;
19951;SDS011;10137;49.406;19.484;2023-09-19T06:40:45;10.00;;;7.87;;
19951;SDS011;10137;49.406;19.484;2023-09-19T06:43:13;9.52;;;7.28;;
19951;SDS011;10137;49.406;19.484;2023-09-19T06:45:41;9.57;;;7.25;;
19951;SDS011;10137;49.406;19.484;2023-09-19T06:48:09;9.50;;;6.90;;
19951;SDS011;10137;49.406;19.484;2023-09-19T06:50:38;9.23;;;7.22;;
19951;SDS011;10137;49.406;19.484;2023-09-19T06:53:10;9.63;;;8.27;;
19951;SDS011;10137;49.406;19.484;2023-09-19T06:55:43;9.77;;;7.73;;
19951;SDS011;10137;49.406;19.484;2023-09-19T06:58:11;11.37;;;7.63;;
19951;SDS011;10137;49.406;19.484;2023-09-19T07:00:40;8.98;;;6.97;;
19951;SDS011;10137;49.406;19.484;2023-09-19T07:03:08;8.00;;;6.57;;
19951;SDS011;10137;49.406;19.484;2023-09-19T07:05:47;8.70;;;6.60;;
19951;SDS011;10137;49.406;19.484;2023-09-19T07:08:16;9.20;;;6.47;;
19951;SDS011;10137;49.406;19.484;2023-09-19T07:10:47;7.50;;;6.23;;
19951;SDS011;10137;49.406;19.484;2023-09-19T07:13:15;7.90;;;6.57;;
19951;SDS011;10137;49.406;19.484;2023-09-19T07:15:44;9.65;;;7.50;;
19951;SDS011;10137;49.406;19.484;2023-09-19T07:18:14;10.33;;;6.47;;
19951;SDS011;10137;49.406;19.484;2023-09-19T07:20:42;10.45;;;6.85;;
19951;SDS011;10137;49.406;19.484;2023-09-19T07:23:15;9.83;;;7.00;;
19951;SDS011;10137;49.406;19.484;2023-09-19T07:25:44;9.30;;;7.40;;
19951;SDS011;10137;49.406;19.484;2023-09-19T07:28:18;8.50;;;5.78;;
19951;SDS011;10137;49.406;19.484;2023-09-19T07:30:47;8.27;;;5.80;;
19951;SDS011;10137;49.406;19.484;2023-09-19T07:33:15;8.43;;;5.70;;
19951;SDS011;10137;49.406;19.484;2023-09-19T07:35:45;7.03;;;4.88;;
19951;SDS011;10137;49.406;19.484;2023-09-19T07:38:13;4.30;;;3.40;;
19951;SDS011;10137;49.406;19.484;2023-09-19T07:40:42;3.40;;;2.63;;
19951;SDS011;10137;49.406;19.484;2023-09-19T07:43:10;4.27;;;2.87;;
19951;SDS011;10137;49.406;19.484;2023-09-19T07:45:39;3.03;;;2.60;;
19951;SDS011;10137;49.406;19.484;2023-09-19T07:48:16;3.33;;;1.97;;
19951;SDS011;10137;49.406;19.484;2023-09-19T07:50:46;3.72;;;2.47;;
19951;SDS011;10137;49.406;19.484;2023-09-19T07:53:14;3.83;;;2.05;;
19951;SDS011;10137;49.406;19.484;2023-09-19T07:55:44;3.43;;;2.70;;
19951;SDS011;10137;49.406;19.484;2023-09-19T07:58:14;2.70;;;2.43;;
19951;SDS011;10137;49.406;19.484;2023-09-19T08:00:44;5.47;;;2.53;;
19951;SDS011;10137;49.406;19.484;2023-09-19T08:03:12;4.53;;;3.17;;
19951;SDS011;10137;49.406;19.484;2023-09-19T08:05:41;5.17;;;3.30;;
19951;SDS011;10137;49.406;19.484;2023-09-19T08:08:10;5.57;;;2.83;;
19951;SDS011;10137;49.406;19.484;2023-09-19T08:10:40;3.47;;;2.50;;
19951;SDS011;10137;49.406;19.484;2023-09-19T08:13:15;3.03;;;2.57;;
19951;SDS011;10137;49.406;19.484;2023-09-19T08:15:45;4.03;;;2.77;;
19951;SDS011;10137;49.406;19.484;2023-09-19T08:18:14;3.97;;;2.70;;
19951;SDS011;10137;49.406;19.484;2023-09-19T08:20:42;4.37;;;2.13;;
19951;SDS011;10137;49.406;19.484;2023-09-19T08:23:12;4.73;;;3.00;;
19951;SDS011;10137;49.406;19.484;2023-09-19T08:25:41;4.30;;;2.90;;
19951;SDS011;10137;49.406;19.484;2023-09-19T08:28:09;5.30;;;2.30;;
19951;SDS011;10137;49.406;19.484;2023-09-19T08:30:40;4.33;;;1.90;;
19951;SDS011;10137;49.406;19.484;2023-09-19T08:33:14;6.07;;;1.80;;
19951;SDS011;10137;49.406;19.484;2023-09-19T08:35:42;4.33;;;1.70;;
19951;SDS011;10137;49.406;19.484;2023-09-19T08:38:12;2.47;;;1.50;;
19951;SDS011;10137;49.406;19.484;2023-09-19T08:40:40;2.30;;;1.47;;
19951;SDS011;10137;49.406;19.484;2023-09-19T08:43:09;5.53;;;1.60;;
19951;SDS011;10137;49.406;19.484;2023-09-19T08:45:38;2.10;;;1.60;;
19951;SDS011;10137;49.406;19.484;2023-09-19T08:48:23;2.20;;;1.50;;
19951;SDS011;10137;49.406;19.484;2023-09-19T08:50:56;3.07;;;1.53;;
19951;SDS011;10137;49.406;19.484;2023-09-19T08:53:31;3.23;;;1.80;;
19951;SDS011;10137;49.406;19.484;2023-09-19T08:56:06;3.70;;;1.83;;
19951;SDS011;10137;49.406;19.484;2023-09-19T08:58:39;3.30;;;1.63;;
19951;SDS011;10137;49.406;19.484;2023-09-19T09:01:14;5.70;;;2.20;;
19951;SDS011;10137;49.406;19.484;2023-09-19T09:03:44;4.97;;;1.60;;
19951;SDS011;10137;49.406;19.484;2023-09-19T09:06:13;2.03;;;1.60;;
19951;SDS011;10137;49.406;19.484;2023-09-19T09:08:43;3.70;;;1.70;;
19951;SDS011;10137;49.406;19.484;2023-09-19T09:11:12;3.93;;;1.67;;
19951;SDS011;10137;49.406;19.484;2023-09-19T09:13:43;5.67;;;1.73;;
19951;SDS011;10137;49.406;19.484;2023-09-19T09:16:12;2.80;;;1.60;;
19951;SDS011;10137;49.406;19.484;2023-09-19T09:18:44;7.07;;;2.00;;
19951;SDS011;10137;49.406;19.484;2023-09-19T09:21:19;3.77;;;1.90;;
19951;SDS011;10137;49.406;19.484;2023-09-19T09:23:49;3.60;;;1.53;;
19951;SDS011;10137;49.406;19.484;2023-09-19T09:26:24;4.30;;;1.70;;
19951;SDS011;10137;49.406;19.484;2023-09-19T09:29:09;2.70;;;1.70;;
19951;SDS011;10137;49.406;19.484;2023-09-19T09:31:37;2.33;;;1.90;;
19951;SDS011;10137;49.406;19.484;2023-09-19T09:34:10;4.83;;;2.47;;
19951;SDS011;10137;49.406;19.484;2023-09-19T09:36:40;2.97;;;2.00;;
19951;SDS011;10137;49.406;19.484;2023-09-19T09:39:08;4.13;;;2.90;;
19951;SDS011;10137;49.406;19.484;2023-09-19T09:41:44;6.10;;;2.87;;
19951;SDS011;10137;49.406;19.484;2023-09-19T09:44:12;4.63;;;2.70;;
19951;SDS011;10137;49.406;19.484;2023-09-19T09:46:42;5.10;;;2.73;;
19951;SDS011;10137;49.406;19.484;2023-09-19T09:49:26;3.43;;;2.20;;
19951;SDS011;10137;49.406;19.484;2023-09-19T09:52:00;2.77;;;2.10;;
19951;SDS011;10137;49.406;19.484;2023-09-19T09:54:33;3.43;;;1.90;;
19951;SDS011;10137;49.406;19.484;2023-09-19T09:57:08;4.97;;;1.93;;
19951;SDS011;10137;49.406;19.484;2023-09-19T09:59:50;2.70;;;1.77;;
19951;SDS011;10137;49.406;19.484;2023-09-19T10:02:20;5.33;;;1.90;;
19951;SDS011;10137;49.406;19.484;2023-09-19T10:05:00;4.47;;;1.77;;
19951;SDS011;10137;49.406;19.484;2023-09-19T10:07:48;2.47;;;1.70;;
19951;SDS011;10137;49.406;19.484;2023-09-19T10:10:29;4.60;;;1.73;;
19951;SDS011;10137;49.406;19.484;2023-09-19T10:13:05;4.10;;;1.90;;
19951;SDS011;10137;49.406;19.484;2023-09-19T10:15:38;5.60;;;1.90;;
19951;SDS011;10137;49.406;19.484;2023-09-19T10:18:10;3.47;;;1.93;;
19951;SDS011;10137;49.406;19.484;2023-09-19T10:20:50;4.73;;;2.10;;
19951;SDS011;10137;49.406;19.484;2023-09-19T10:23:19;5.07;;;2.13;;
19951;SDS011;10137;49.406;19.484;2023-09-19T10:25:50;5.27;;;2.27;;
19951;SDS011;10137;49.406;19.484;2023-09-19T10:28:20;5.83;;;2.67;;
19951;SDS011;10137;49.406;19.484;2023-09-19T10:30:49;4.87;;;1.93;;
19951;SDS011;10137;49.406;19.484;2023-09-19T10:33:19;6.37;;;2.03;;
19951;SDS011;10137;49.406;19.484;2023-09-19T10:35:50;2.20;;;1.80;;
19951;SDS011;10137;49.406;19.484;2023-09-19T10:38:19;6.97;;;2.10;;
19951;SDS011;10137;49.406;19.484;2023-09-19T10:40:51;4.80;;;1.90;;
19951;SDS011;10137;49.406;19.484;2023-09-19T10:43:21;5.07;;;2.00;;
19951;SDS011;10137;49.406;19.484;2023-09-19T10:45:52;4.63;;;2.13;;
19951;SDS011;10137;49.406;19.484;2023-09-19T10:48:25;4.93;;;1.90;;
19951;SDS011;10137;49.406;19.484;2023-09-19T10:51:01;8.53;;;2.20;;
19951;SDS011;10137;49.406;19.484;2023-09-19T10:53:51;6.20;;;2.20;;
19951;SDS011;10137;49.406;19.484;2023-09-19T10:56:25;8.33;;;2.30;;
19951;SDS011;10137;49.406;19.484;2023-09-19T10:59:08;8.07;;;2.37;;
19951;SDS011;10137;49.406;19.484;2023-09-19T11:01:46;4.63;;;2.03;;
19951;SDS011;10137;49.406;19.484;2023-09-19T11:04:23;7.17;;;1.97;;
19951;SDS011;10137;49.406;19.484;2023-09-19T11:07:04;6.17;;;2.20;;
19951;SDS011;10137;49.406;19.484;2023-09-19T11:09:51;3.93;;;2.00;;
19951;SDS011;10137;49.406;19.484;2023-09-19T11:24:32;3.17;;;1.60;;
19951;SDS011;10137;49.406;19.484;2023-09-19T11:27:11;4.33;;;1.50;;
19951;SDS011;10137;49.406;19.484;2023-09-19T11:29:44;3.40;;;1.80;;
19951;SDS011;10137;49.406;19.484;2023-09-19T11:32:13;2.47;;;1.50;;
19951;SDS011;10137;49.406;19.484;2023-09-19T11:34:48;1.53;;;1.27;;
19951;SDS011;10137;49.406;19.484;2023-09-19T11:40:35;1.80;;;1.50;;
19951;SDS011;10137;49.406;19.484;2023-09-19T11:46:06;3.07;;;1.37;;
19951;SDS011;10137;49.406;19.484;2023-09-19T11:48:42;2.50;;;1.30;;
19951;SDS011;10137;49.406;19.484;2023-09-19T11:51:18;1.10;;;1.00;;
19951;SDS011;10137;49.406;19.484;2023-09-19T11:53:52;1.75;;;1.10;;
19951;SDS011;10137;49.406;19.484;2023-09-19T11:56:26;2.47;;;1.10;;
19951;SDS011;10137;49.406;19.484;2023-09-19T11:58:54;2.47;;;1.10;;
19951;SDS011;10137;49.406;19.484;2023-09-19T12:01:26;2.47;;;1.17;;
19951;SDS011;10137;49.406;19.484;2023-09-19T12:03:58;2.47;;;1.10;;
19951;SDS011;10137;49.406;19.484;2023-09-19T12:06:28;2.03;;;1.30;;
19951;SDS011;10137;49.406;19.484;2023-09-19T12:08:58;1.33;;;0.90;;
19951;SDS011;10137;49.406;19.484;2023-09-19T12:11:40;1.10;;;1.00;;
19951;SDS011;10137;49.406;19.484;2023-09-19T12:14:10;2.45;;;1.25;;
19951;SDS011;10137;49.406;19.484;2023-09-19T12:16:50;1.27;;;1.13;;
19951;SDS011;10137;49.406;19.484;2023-09-19T12:19:22;2.60;;;1.73;;
19951;SDS011;10137;49.406;19.484;2023-09-19T12:21:57;1.88;;;1.45;;
19951;SDS011;10137;49.406;19.484;2023-09-19T12:24:30;2.30;;;1.40;;
19951;SDS011;10137;49.406;19.484;2023-09-19T12:27:04;3.58;;;1.35;;
19951;SDS011;10137;49.406;19.484;2023-09-19T12:29:42;4.57;;;1.50;;
19951;SDS011;10137;49.406;19.484;2023-09-19T12:32:11;2.35;;;1.52;;
19951;SDS011;10137;49.406;19.484;2023-09-19T12:34:41;7.15;;;1.70;;
19951;SDS011;10137;49.406;19.484;2023-09-19T12:37:10;1.50;;;1.30;;
19951;SDS011;10137;49.406;19.484;2023-09-19T12:39:42;1.40;;;1.23;;
19951;SDS011;10137;49.406;19.484;2023-09-19T12:42:17;2.72;;;1.30;;
19951;SDS011;10137;49.406;19.484;2023-09-19T12:44:47;1.60;;;1.30;;
19951;SDS011;10137;49.406;19.484;2023-09-19T12:47:17;1.67;;;1.15;;
19951;SDS011;10137;49.406;19.484;2023-09-19T12:52:55;2.30;;;1.05;;
19951;SDS011;10137;49.406;19.484;2023-09-19T12:55:27;2.13;;;1.38;;
19951;SDS011;10137;49.406;19.484;2023-09-19T12:57:59;2.67;;;1.40;;
19951;SDS011;10137;49.406;19.484;2023-09-19T13:00:36;3.25;;;1.30;;
19951;SDS011;10137;49.406;19.484;2023-09-19T13:03:11;2.80;;;1.40;;
19951;SDS011;10137;49.406;19.484;2023-09-19T13:05:48;2.15;;;1.48;;
19951;SDS011;10137;49.406;19.484;2023-09-19T13:08:20;2.80;;;1.40;;
19951;SDS011;10137;49.406;19.484;2023-09-19T13:11:05;1.48;;;1.38;;
19951;SDS011;10137;49.406;19.484;2023-09-19T13:13:48;1.90;;;1.17;;
19951;SDS011;10137;49.406;19.484;2023-09-19T13:16:21;3.40;;;1.88;;
19951;SDS011;10137;49.406;19.484;2023-09-19T13:18:54;2.38;;;1.25;;
19951;SDS011;10137;49.406;19.484;2023-09-19T13:21:30;1.67;;;1.52;;
19951;SDS011;10137;49.406;19.484;2023-09-19T13:24:20;1.33;;;1.20;;
19951;SDS011;10137;49.406;19.484;2023-09-19T13:26:52;2.35;;;1.33;;
19951;SDS011;10137;49.406;19.484;2023-09-19T13:29:22;3.00;;;1.42;;
19951;SDS011;10137;49.406;19.484;2023-09-19T13:31:51;3.25;;;1.13;;
19951;SDS011;10137;49.406;19.484;2023-09-19T13:34:23;4.15;;;1.38;;
19951;SDS011;10137;49.406;19.484;2023-09-19T13:36:56;2.15;;;1.30;;
19951;SDS011;10137;49.406;19.484;2023-09-19T13:39:31;3.58;;;1.63;;
19951;SDS011;10137;49.406;19.484;2023-09-19T13:42:02;2.15;;;1.40;;
19951;SDS011;10137;49.406;19.484;2023-09-19T13:44:32;7.65;;;1.48;;
19951;SDS011;10137;49.406;19.484;2023-09-19T13:47:00;4.30;;;1.45;;
19951;SDS011;10137;49.406;19.484;2023-09-19T13:49:30;3.60;;;1.60;;
19951;SDS011;10137;49.406;19.484;2023-09-19T13:51:58;2.95;;;1.55;;
19951;SDS011;10137;49.406;19.484;2023-09-19T13:54:30;3.60;;;1.40;;
19951;SDS011;10137;49.406;19.484;2023-09-19T13:56:58;4.25;;;1.42;;
19951;SDS011;10137;49.406;19.484;2023-09-19T13:59:27;2.35;;;1.80;;
19951;SDS011;10137;49.406;19.484;2023-09-19T14:02:00;3.42;;;2.22;;
19951;SDS011;10137;49.406;19.484;2023-09-19T14:04:30;2.90;;;1.88;;
19951;SDS011;10137;49.406;19.484;2023-09-19T14:06:58;3.67;;;1.60;;
19951;SDS011;10137;49.406;19.484;2023-09-19T14:09:27;2.65;;;2.20;;
19951;SDS011;10137;49.406;19.484;2023-09-19T14:11:55;2.65;;;1.30;;
19951;SDS011;10137;49.406;19.484;2023-09-19T14:14:24;4.00;;;1.83;;
19951;SDS011;10137;49.406;19.484;2023-09-19T14:16:51;4.30;;;1.33;;
19951;SDS011;10137;49.406;19.484;2023-09-19T14:19:26;2.92;;;1.40;;
19951;SDS011;10137;49.406;19.484;2023-09-19T14:21:56;1.80;;;1.30;;
19951;SDS011;10137;49.406;19.484;2023-09-19T14:24:29;1.55;;;1.27;;
19951;SDS011;10137;49.406;19.484;2023-09-19T14:26:57;3.90;;;1.95;;
19951;SDS011;10137;49.406;19.484;2023-09-19T14:29:29;4.53;;;2.10;;
19951;SDS011;10137;49.406;19.484;2023-09-19T14:32:01;1.42;;;1.20;;
19951;SDS011;10137;49.406;19.484;2023-09-19T14:34:39;2.10;;;1.50;;
19951;SDS011;10137;49.406;19.484;2023-09-19T14:37:09;3.42;;;1.58;;
19951;SDS011;10137;49.406;19.484;2023-09-19T14:39:40;2.95;;;1.27;;
19951;SDS011;10137;49.406;19.484;2023-09-19T14:42:11;1.67;;;1.30;;
19951;SDS011;10137;49.406;19.484;2023-09-19T14:44:41;3.47;;;1.20;;
19951;SDS011;10137;49.406;19.484;2023-09-19T14:47:09;2.92;;;1.33;;
19951;SDS011;10137;49.406;19.484;2023-09-19T14:49:40;5.68;;;1.30;;
19951;SDS011;10137;49.406;19.484;2023-09-19T14:52:09;4.93;;;1.48;;
19951;SDS011;10137;49.406;19.484;2023-09-19T14:54:41;2.53;;;1.30;;
19951;SDS011;10137;49.406;19.484;2023-09-19T14:57:10;3.03;;;1.40;;
19951;SDS011;10137;49.406;19.484;2023-09-19T14:59:40;3.38;;;1.40;;
19951;SDS011;10137;49.406;19.484;2023-09-19T15:02:07;2.40;;;1.40;;
19951;SDS011;10137;49.406;19.484;2023-09-19T15:04:35;4.88;;;1.80;;
19951;SDS011;10137;49.406;19.484;2023-09-19T15:07:05;3.55;;;1.50;;
19951;SDS011;10137;49.406;19.484;2023-09-19T15:09:34;3.15;;;2.20;;
19951;SDS011;10137;49.406;19.484;2023-09-19T15:12:02;2.60;;;1.80;;
19951;SDS011;10137;49.406;19.484;2023-09-19T15:14:30;3.35;;;1.60;;